Time;durP1;ratioP1;P1;durP2;ratioP2;P2;SDS_P1;SDS_P2;PMS_P1;PMS_P2;Temp;Humidity;BMP_temperature;BMP_pressure;BME280_temperature;BME280_humidity;BME280_pressure;Samples;Min_cycle;Max_cycle;Signal;HPM_P1;HPM_P2
2021/11/29 00:00:32;;;;;;;0.70;0.50;;;2.00;99.90;;;;;;5038932;28;20437;-74
2021/11/29 00:03:04;;;;;;;0.93;0.70;;;2.00;99.90;;;;;;5039628;28;20466;-74
2021/11/29 00:05:30;;;;;;;0.97;0.90;;;2.00;99.90;;;;;;5070787;28;20417;-74
2021/11/29 00:07:57;;;;;;;0.70;0.53;;;2.00;99.90;;;;;;5038873;28;20784;-74
2021/11/29 00:10:24;;;;;;;0.80;0.77;;;1.90;99.90;;;;;;5066381;28;20481;-73
2021/11/29 00:12:49;;;;;;;0.70;0.50;;;1.90;99.90;;;;;;5032007;28;20412;-73
2021/11/29 00:15:15;;;;;;;0.70;0.40;;;1.90;99.90;;;;;;5030611;28;20422;-73
2021/11/29 00:17:41;;;;;;;0.70;0.50;;;1.80;99.90;;;;;;5046826;28;20262;-73
2021/11/29 00:20:08;;;;;;;0.70;0.40;;;1.80;99.90;;;;;;5031856;28;20506;-73
2021/11/29 00:22:34;;;;;;;0.70;0.50;;;1.80;99.90;;;;;;5031856;28;20265;-73
2021/11/29 00:25:00;;;;;;;0.70;0.53;;;1.80;99.90;;;;;;5031620;28;20460;-73
2021/11/29 00:27:25;;;;;;;0.70;0.50;;;1.90;99.90;;;;;;5032988;28;20175;-73
2021/11/29 00:29:51;;;;;;;8.17;1.90;;;1.80;99.90;;;;;;5033238;28;20165;-73
2021/11/29 00:32:17;;;;;;;0.90;0.70;;;1.80;99.90;;;;;;5033766;28;20165;-74
2021/11/29 00:34:43;;;;;;;1.37;1.27;;;1.80;99.90;;;;;;5033074;28;20189;-74
2021/11/29 00:37:08;;;;;;;0.70;0.50;;;1.70;99.90;;;;;;5033299;28;20625;-73
2021/11/29 00:39:34;;;;;;;0.87;0.87;;;1.70;99.90;;;;;;5065274;28;20645;-73
2021/11/29 00:42:00;;;;;;;0.97;0.87;;;1.70;99.90;;;;;;5032148;28;20160;-73
2021/11/29 00:44:28;;;;;;;1.47;1.20;;;1.60;99.90;;;;;;5032611;28;20202;-73
2021/11/29 00:46:55;;;;;;;0.70;0.40;;;1.60;99.90;;;;;;5031243;28;20175;-73
2021/11/29 00:49:21;;;;;;;5.70;1.27;;;1.60;99.90;;;;;;5032646;28;20447;-73
2021/11/29 00:51:46;;;;;;;0.70;0.50;;;1.60;99.90;;;;;;5032531;28;20464;-73
2021/11/29 00:54:13;;;;;;;0.70;0.50;;;1.50;99.90;;;;;;5064627;28;20468;-73
2021/11/29 00:56:39;;;;;;;0.70;0.50;;;1.50;99.90;;;;;;5034207;28;20208;-73
2021/11/29 00:59:04;;;;;;;1.50;1.37;;;1.60;99.90;;;;;;5050255;28;20477;-73
2021/11/29 01:01:31;;;;;;;0.80;0.77;;;1.60;99.90;;;;;;5032167;28;20430;-73
2021/11/29 01:03:56;;;;;;;0.83;0.67;;;1.60;99.90;;;;;;5032221;28;20203;-73
2021/11/29 01:06:22;;;;;;;1.00;1.00;;;1.60;99.90;;;;;;5034785;28;20405;-73
2021/11/29 01:08:47;;;;;;;0.70;0.50;;;1.60;99.90;;;;;;5035397;28;20209;-73
2021/11/29 01:11:13;;;;;;;0.70;0.40;;;1.60;99.90;;;;;;5050926;28;20265;-73
2021/11/29 01:13:40;;;;;;;1.47;1.37;;;1.60;99.90;;;;;;5034169;28;20175;-73
2021/11/29 01:16:06;;;;;;;0.80;0.80;;;1.60;99.90;;;;;;5034807;28;20267;-73
2021/11/29 01:18:32;;;;;;;0.70;0.50;;;1.60;99.90;;;;;;5035644;28;20413;-74
2021/11/29 01:20:58;;;;;;;1.10;1.03;;;1.60;99.90;;;;;;5034490;28;20434;-74
2021/11/29 01:23:24;;;;;;;1.77;1.03;;;1.50;99.90;;;;;;5035603;28;20255;-74
2021/11/29 01:25:53;;;;;;;0.83;0.83;;;1.60;99.90;;;;;;5035397;28;20509;-73
2021/11/29 01:28:19;;;;;;;0.70;0.50;;;1.50;99.90;;;;;;5036133;28;20412;-74
2021/11/29 01:30:45;;;;;;;0.70;0.50;;;1.50;99.90;;;;;;5038015;28;20443;-74
2021/11/29 01:33:11;;;;;;;0.70;0.60;;;1.60;99.90;;;;;;5053888;28;20460;-73
2021/11/29 01:35:37;;;;;;;1.70;1.60;;;1.60;99.90;;;;;;5071115;28;20172;-74
2021/11/29 01:38:03;;;;;;;1.53;1.43;;;1.60;99.90;;;;;;5036870;28;20597;-74
2021/11/29 01:40:29;;;;;;;0.70;0.50;;;1.60;99.90;;;;;;5038742;28;20434;-74
2021/11/29 01:42:59;;;;;;;0.87;0.87;;;1.60;99.90;;;;;;5037723;28;20829;-74
2021/11/29 01:45:28;;;;;;;0.70;0.60;;;1.60;99.90;;;;;;5038561;28;20924;-74
2021/11/29 01:47:53;;;;;;;0.70;0.50;;;1.60;99.90;;;;;;5037813;28;20410;-74
2021/11/29 01:50:20;;;;;;;0.70;0.60;;;1.60;99.90;;;;;;5039512;28;20425;-74
2021/11/29 01:52:46;;;;;;;0.70;0.40;;;1.60;99.90;;;;;;5038079;28;20207;-73
2021/11/29 01:55:12;;;;;;;0.70;0.50;;;1.60;99.90;;;;;;5037457;28;20915;-74
2021/11/29 01:57:37;;;;;;;0.73;0.53;;;1.60;99.90;;;;;;5053428;28;20439;-73
2021/11/29 02:00:06;;;;;;;0.70;0.50;;;1.60;99.90;;;;;;5038493;28;20197;-73
2021/11/29 02:02:31;;;;;;;0.70;0.40;;;1.60;99.90;;;;;;5038786;28;20196;-74
2021/11/29 02:04:59;;;;;;;0.70;0.40;;;1.60;99.90;;;;;;5038643;28;20767;-74
2021/11/29 02:07:27;;;;;;;0.70;0.50;;;1.60;99.90;;;;;;5038601;28;20178;-74
2021/11/29 02:09:52;;;;;;;0.70;0.40;;;1.60;99.90;;;;;;5038365;28;20410;-74
2021/11/29 02:12:19;;;;;;;0.70;0.50;;;1.50;99.90;;;;;;5037628;28;20417;-73
2021/11/29 02:14:46;;;;;;;0.70;0.47;;;1.50;99.90;;;;;;5038621;28;20164;-73
2021/11/29 02:17:12;;;;;;;0.70;0.50;;;1.50;99.90;;;;;;5037250;28;20414;-73
2021/11/29 02:19:41;;;;;;;0.70;0.50;;;1.50;99.90;;;;;;5036798;28;20478;-74
2021/11/29 02:22:07;;;;;;;0.70;0.50;;;1.40;99.90;;;;;;5038006;28;20435;-74
2021/11/29 02:24:33;;;;;;;0.70;0.40;;;1.40;99.90;;;;;;5036271;28;20468;-73
2021/11/29 02:26:58;;;;;;;0.70;0.60;;;1.40;99.90;;;;;;5037802;28;20895;-73
2021/11/29 02:29:24;;;;;;;0.70;0.50;;;1.30;99.90;;;;;;5036247;28;20652;-73
2021/11/29 02:31:50;;;;;;;0.70;0.50;;;1.30;99.90;;;;;;5038156;28;20188;-74
2021/11/29 02:34:17;;;;;;;0.70;0.50;;;1.30;99.90;;;;;;5037685;28;20175;-74
2021/11/29 02:36:43;;;;;;;0.70;0.50;;;1.30;99.90;;;;;;5037674;28;20183;-74
2021/11/29 02:39:11;;;;;;;0.97;0.80;;;1.30;99.90;;;;;;5053064;28;20514;-74
2021/11/29 02:41:37;;;;;;;0.70;0.50;;;1.20;99.90;;;;;;5069824;28;20440;-74
2021/11/29 02:44:04;;;;;;;0.70;0.50;;;1.20;99.90;;;;;;5037697;28;20454;-74
2021/11/29 02:46:30;;;;;;;1.63;1.53;;;1.20;99.90;;;;;;5036378;28;20414;-74
2021/11/29 02:48:57;;;;;;;0.70;0.50;;;1.30;99.90;;;;;;5035852;28;20414;-73
2021/11/29 02:51:37;;;;;;;0.83;0.83;;;1.30;99.90;;;;;;5037368;28;20430;-74
2021/11/29 02:54:12;;;;;;;0.70;0.50;;;1.20;99.90;;;;;;5037421;28;20413;-73
2021/11/29 02:56:41;;;;;;;0.90;0.80;;;1.20;99.90;;;;;;5036897;28;20948;-74
2021/11/29 02:59:10;;;;;;;0.70;0.50;;;1.20;99.90;;;;;;5036158;28;20804;-74
2021/11/29 03:01:38;;;;;;;0.70;0.50;;;1.20;99.90;;;;;;5052800;28;20430;-73
2021/11/29 03:04:04;;;;;;;0.70;0.40;;;1.20;99.90;;;;;;5036538;28;20454;-74
2021/11/29 03:06:29;;;;;;;0.70;0.50;;;1.20;99.90;;;;;;5038178;28;20451;-73
2021/11/29 03:08:55;;;;;;;0.70;0.50;;;1.30;99.90;;;;;;5037303;28;20175;-74
2021/11/29 03:11:21;;;;;;;0.80;0.70;;;1.40;99.90;;;;;;5037542;28;20192;-73
2021/11/29 03:13:47;;;;;;;0.70;0.40;;;1.50;99.90;;;;;;5037510;28;20225;-74
2021/11/29 03:16:13;;;;;;;5.30;0.90;;;1.60;99.90;;;;;;5035660;28;20577;-73
2021/11/29 03:18:43;;;;;;;0.70;0.40;;;1.70;99.90;;;;;;5036548;28;20426;-74
2021/11/29 03:21:10;;;;;;;0.73;0.73;;;1.70;99.90;;;;;;5036231;28;20842;-74
2021/11/29 03:23:36;;;;;;;0.70;0.47;;;1.80;99.90;;;;;;5068924;28;20990;-74
2021/11/29 03:26:06;;;;;;;0.80;0.60;;;1.90;99.90;;;;;;5052505;28;20413;-74
2021/11/29 03:28:36;;;;;;;1.20;0.90;;;1.90;99.90;;;;;;5037630;28;20410;-74
2021/11/29 03:31:01;;;;;;;0.70;0.47;;;2.00;99.90;;;;;;5036913;28;20425;-74
2021/11/29 03:33:27;;;;;;;0.70;0.60;;;1.90;99.90;;;;;;5069363;28;20420;-74
2021/11/29 03:35:54;;;;;;;0.70;0.50;;;2.00;99.90;;;;;;5037215;28;20188;-74
2021/11/29 03:38:20;;;;;;;0.70;0.60;;;2.00;99.90;;;;;;5038156;28;20178;-74
2021/11/29 03:40:46;;;;;;;1.07;0.97;;;1.90;99.90;;;;;;5036290;28;20953;-74
2021/11/29 03:43:11;;;;;;;0.70;0.50;;;2.00;99.90;;;;;;5037305;28;20460;-74
2021/11/29 03:45:37;;;;;;;0.70;0.47;;;2.10;99.90;;;;;;5052825;28;20264;-74
2021/11/29 03:48:03;;;;;;;0.93;0.93;;;2.00;99.90;;;;;;5036238;28;20175;-74
2021/11/29 03:50:29;;;;;;;0.70;0.57;;;2.10;99.90;;;;;;5034976;28;20195;-74
2021/11/29 03:52:54;;;;;;;0.70;0.50;;;2.10;99.90;;;;;;5034728;28;20819;-74
2021/11/29 03:55:20;;;;;;;20.53;1.23;;;2.10;99.90;;;;;;5034996;28;20182;-74
2021/11/29 03:57:45;;;;;;;0.70;0.40;;;2.10;99.90;;;;;;5052667;28;20179;-74
2021/11/29 04:00:12;;;;;;;0.70;0.50;;;2.20;99.90;;;;;;5035576;28;20672;-74
2021/11/29 04:02:38;;;;;;;0.70;0.50;;;2.20;99.90;;;;;;5037219;28;20679;-74
2021/11/29 04:05:03;;;;;;;0.70;0.50;;;2.10;99.90;;;;;;5035876;28;20471;-74
2021/11/29 04:07:29;;;;;;;0.70;0.50;;;2.10;99.90;;;;;;5037251;28;20174;-74
2021/11/29 04:09:54;;;;;;;0.70;0.40;;;2.10;99.90;;;;;;5037425;28;20672;-74
2021/11/29 04:12:21;;;;;;;0.70;0.50;;;2.10;99.90;;;;;;5037520;28;20178;-74
2021/11/29 04:14:46;;;;;;;0.70;0.40;;;2.00;99.90;;;;;;5035493;28;20170;-74
2021/11/29 04:17:12;;;;;;;1.90;1.57;;;1.80;99.90;;;;;;5035910;28;20414;-74
2021/11/29 04:19:42;;;;;;;0.70;0.47;;;1.80;99.90;;;;;;5035276;28;20209;-74
2021/11/29 04:22:07;;;;;;;1.10;1.00;;;1.70;99.90;;;;;;5070235;28;20163;-74
2021/11/29 04:24:33;;;;;;;0.70;0.50;;;1.70;99.90;;;;;;5036900;28;20517;-74
2021/11/29 04:27:03;;;;;;;0.70;0.50;;;1.60;99.90;;;;;;5036399;28;20167;-74
2021/11/29 04:29:31;;;;;;;0.70;0.50;;;1.60;99.90;;;;;;5037364;28;20761;-74
2021/11/29 04:31:56;;;;;;;0.70;0.50;;;1.60;99.90;;;;;;5036909;28;20433;-74
2021/11/29 04:34:22;;;;;;;0.70;0.70;;;1.60;99.90;;;;;;5037791;28;20478;-74
2021/11/29 04:36:47;;;;;;;0.70;0.40;;;1.50;99.90;;;;;;5037348;28;20199;-74
2021/11/29 04:39:15;;;;;;;0.70;0.50;;;1.60;99.90;;;;;;5069121;28;20186;-74
2021/11/29 04:41:41;;;;;;;0.70;0.40;;;1.50;99.90;;;;;;5036685;28;20217;-74
2021/11/29 04:44:07;;;;;;;0.70;0.40;;;1.50;99.90;;;;;;5036943;28;20614;-74
2021/11/29 04:46:34;;;;;;;0.70;0.50;;;1.50;99.90;;;;;;5069378;28;20289;-74
2021/11/29 04:48:59;;;;;;;0.70;0.43;;;1.50;99.90;;;;;;5036732;28;20199;-74
2021/11/29 04:51:25;;;;;;;0.70;0.47;;;1.40;99.90;;;;;;5068821;28;20442;-74
2021/11/29 04:53:51;;;;;;;0.70;0.57;;;1.40;99.90;;;;;;5069401;28;20543;-74
2021/11/29 04:56:17;;;;;;;0.70;0.50;;;1.40;99.90;;;;;;5038095;28;20198;-74
2021/11/29 04:58:43;;;;;;;0.70;0.50;;;1.40;99.90;;;;;;5038339;28;20414;-74
2021/11/29 05:01:09;;;;;;;0.70;0.50;;;1.40;99.90;;;;;;5038092;28;20461;-74
2021/11/29 05:03:35;;;;;;;0.90;0.80;;;1.40;99.90;;;;;;5039008;28;20295;-74
2021/11/29 05:06:00;;;;;;;0.70;0.50;;;1.50;99.90;;;;;;5040913;28;20441;-74
2021/11/29 05:08:26;;;;;;;0.70;0.40;;;1.50;99.90;;;;;;5073706;28;20581;-74
2021/11/29 05:10:52;;;;;;;0.70;0.50;;;1.50;99.90;;;;;;5040616;28;20188;-74
2021/11/29 05:13:18;;;;;;;1.00;0.90;;;1.40;99.90;;;;;;5042429;28;20177;-74
2021/11/29 05:15:44;;;;;;;0.70;0.43;;;1.40;99.90;;;;;;5042130;28;20231;-74
2021/11/29 05:18:09;;;;;;;1.27;1.17;;;1.40;99.90;;;;;;5041262;28;20448;-74
2021/11/29 05:20:35;;;;;;;0.70;0.40;;;1.40;99.90;;;;;;5040454;28;20228;-74
2021/11/29 05:23:01;;;;;;;1.53;1.20;;;1.40;99.90;;;;;;5040705;28;20203;-75
2021/11/29 05:25:27;;;;;;;1.20;0.90;;;1.40;99.90;;;;;;5040344;28;20168;-74
2021/11/29 05:27:53;;;;;;;0.70;0.53;;;1.30;99.90;;;;;;5039192;28;20168;-75
2021/11/29 05:30:18;;;;;;;1.83;1.73;;;1.30;99.90;;;;;;5040846;28;20443;-74
2021/11/29 05:32:44;;;;;;;0.70;0.40;;;1.40;99.90;;;;;;5041252;28;20175;-74
2021/11/29 05:35:10;;;;;;;2.70;1.53;;;1.40;99.90;;;;;;5040120;28;20604;-74
2021/11/29 05:37:36;;;;;;;0.70;0.40;;;1.40;99.90;;;;;;5038992;28;20182;-74
2021/11/29 05:40:02;;;;;;;0.70;0.40;;;1.40;99.90;;;;;;5072934;28;20207;-74
2021/11/29 05:42:27;;;;;;;0.70;0.40;;;1.40;99.90;;;;;;5040171;28;20535;-74
2021/11/29 05:44:54;;;;;;;0.70;0.40;;;1.50;99.90;;;;;;5040737;28;20406;-74
2021/11/29 05:47:21;;;;;;;0.67;0.40;;;1.60;99.90;;;;;;5072917;28;20264;-74
2021/11/29 05:49:47;;;;;;;0.83;0.83;;;1.60;99.90;;;;;;5040054;28;20405;-74
2021/11/29 05:52:13;;;;;;;1.13;1.03;;;1.60;99.90;;;;;;5039976;28;20410;-74
2021/11/29 05:54:39;;;;;;;0.80;0.57;;;1.70;99.90;;;;;;5039174;28;20414;-74
2021/11/29 05:57:05;;;;;;;0.70;0.40;;;1.70;99.90;;;;;;5038988;28;20456;-74
2021/11/29 05:59:31;;;;;;;1.23;0.80;;;1.70;99.90;;;;;;5037792;28;20424;-74
2021/11/29 06:01:57;;;;;;;3.63;2.30;;;1.70;99.90;;;;;;5039219;28;20467;-74
2021/11/29 06:04:22;;;;;;;0.70;0.50;;;1.70;99.90;;;;;;5038569;28;20281;-74
2021/11/29 06:06:48;;;;;;;0.70;0.60;;;1.70;99.90;;;;;;5038490;28;20176;-74
2021/11/29 06:09:14;;;;;;;0.83;0.83;;;1.60;99.90;;;;;;5055390;28;20608;-74
2021/11/29 06:11:40;;;;;;;1.33;1.23;;;1.70;99.90;;;;;;5053991;28;20191;-74
2021/11/29 06:14:06;;;;;;;0.70;0.50;;;1.70;99.90;;;;;;5038162;28;20413;-74
2021/11/29 06:16:32;;;;;;;0.70;0.50;;;1.70;99.90;;;;;;5053868;28;20406;-74
2021/11/29 06:18:57;;;;;;;0.63;0.40;;;1.70;99.90;;;;;;5038947;28;20174;-74
2021/11/29 06:21:23;;;;;;;0.70;0.60;;;1.80;99.90;;;;;;5053707;28;20202;-74
2021/11/29 06:23:49;;;;;;;0.70;0.50;;;1.80;99.90;;;;;;5070765;28;20187;-74
2021/11/29 06:26:17;;;;;;;1.30;0.87;;;1.90;99.90;;;;;;5038483;28;20285;-74
2021/11/29 06:28:43;;;;;;;0.70;0.50;;;1.90;99.90;;;;;;5039488;28;20167;-74
2021/11/29 06:31:08;;;;;;;0.70;0.70;;;1.90;99.90;;;;;;5039248;28;20585;-74
2021/11/29 06:33:34;;;;;;;3.23;3.03;;;1.90;99.90;;;;;;5038366;28;20210;-74
2021/11/29 06:36:00;;;;;;;0.70;0.60;;;1.90;99.90;;;;;;5071298;28;20595;-74
2021/11/29 06:38:27;;;;;;;1.40;1.00;;;1.90;99.90;;;;;;5037831;28;20178;-74
2021/11/29 06:40:55;;;;;;;0.70;0.50;;;2.00;99.90;;;;;;5038750;28;20441;-74
2021/11/29 06:43:21;;;;;;;0.70;0.50;;;2.00;99.90;;;;;;5038988;28;20484;-74
2021/11/29 06:45:48;;;;;;;0.70;0.47;;;2.00;99.90;;;;;;5038676;28;20460;-74
2021/11/29 06:48:14;;;;;;;0.67;0.47;;;2.00;99.90;;;;;;5038417;28;20408;-74
2021/11/29 06:50:40;;;;;;;0.70;0.50;;;2.00;99.90;;;;;;5038664;28;20425;-74
2021/11/29 06:53:06;;;;;;;1.07;0.93;;;2.00;99.90;;;;;;5038352;28;20439;-74
2021/11/29 06:55:32;;;;;;;2.90;2.30;;;2.00;99.90;;;;;;5036496;28;20433;-74
2021/11/29 06:57:59;;;;;;;0.70;0.40;;;2.00;99.90;;;;;;5053574;28;20425;-74
2021/11/29 07:00:25;;;;;;;0.70;0.50;;;2.00;99.90;;;;;;5038035;28;20425;-74
2021/11/29 07:02:53;;;;;;;0.70;0.40;;;1.90;99.90;;;;;;5037937;28;20446;-74
2021/11/29 07:05:19;;;;;;;0.70;0.40;;;1.90;99.90;;;;;;5037766;28;20429;-74
2021/11/29 07:07:47;;;;;;;0.70;0.47;;;1.90;99.90;;;;;;5037135;28;20424;-74
2021/11/29 07:10:12;;;;;;;0.70;0.40;;;1.90;99.90;;;;;;5054841;28;20544;-74
2021/11/29 07:12:40;;;;;;;0.70;0.70;;;1.90;99.90;;;;;;5039352;28;20764;-74
2021/11/29 07:15:07;;;;;;;0.70;0.43;;;1.90;99.90;;;;;;5034550;28;20161;-74
2021/11/29 07:17:33;;;;;;;0.70;0.50;;;1.90;99.90;;;;;;5032805;28;20475;-73
2021/11/29 07:19:58;;;;;;;1.73;1.63;;;1.90;99.90;;;;;;5032717;28;20931;-74
2021/11/29 07:22:25;;;;;;;0.70;0.40;;;2.00;99.90;;;;;;5032684;28;20398;-74
2021/11/29 07:24:52;;;;;;;2.10;1.43;;;2.00;99.90;;;;;;5032397;28;20564;-73
2021/11/29 07:27:20;;;;;;;12.30;2.97;;;2.00;99.90;;;;;;5031655;28;20406;-74
2021/11/29 07:29:46;;;;;;;0.70;0.40;;;2.10;99.90;;;;;;5047905;28;20409;-74
2021/11/29 07:32:12;;;;;;;0.70;0.50;;;2.10;99.90;;;;;;5032738;28;20461;-74
2021/11/29 07:34:37;;;;;;;3.80;3.60;;;2.20;99.90;;;;;;5032478;28;20402;-73
2021/11/29 07:37:04;;;;;;;0.97;0.97;;;2.20;99.90;;;;;;5064264;28;20270;-73
2021/11/29 07:39:29;;;;;;;0.70;0.50;;;2.20;99.90;;;;;;5032519;28;20171;-73
2021/11/29 07:41:58;;;;;;;1.03;1.03;;;2.20;99.90;;;;;;5032416;28;20942;-73
2021/11/29 07:44:24;;;;;;;0.70;0.40;;;2.20;99.90;;;;;;5032398;28;20308;-74
2021/11/29 07:46:49;;;;;;;0.70;0.60;;;2.20;99.90;;;;;;5032120;28;20406;-74
2021/11/29 07:49:15;;;;;;;0.70;0.40;;;2.20;99.90;;;;;;5033372;28;20413;-74
2021/11/29 07:51:42;;;;;;;0.70;0.50;;;2.20;99.90;;;;;;5033300;28;20504;-74
2021/11/29 07:54:07;;;;;;;0.70;0.50;;;2.20;99.90;;;;;;5033511;28;20687;-74
2021/11/29 07:56:33;;;;;;;0.70;0.50;;;2.20;99.90;;;;;;5032613;28;20454;-74
2021/11/29 07:58:58;;;;;;;0.70;0.50;;;2.20;99.90;;;;;;5033466;28;20560;-74
2021/11/29 08:01:24;;;;;;;0.70;0.50;;;2.30;99.90;;;;;;5055035;28;20199;-74
2021/11/29 08:03:50;;;;;;;0.70;0.50;;;2.30;99.90;;;;;;5053320;28;20202;-74
2021/11/29 08:06:15;;;;;;;0.70;0.50;;;2.40;99.90;;;;;;5037662;28;20175;-75
2021/11/29 08:08:45;;;;;;;0.70;0.40;;;2.50;99.90;;;;;;5039265;28;20176;-74
2021/11/29 08:11:11;;;;;;;0.70;0.40;;;2.50;99.90;;;;;;5033887;28;20226;-73
2021/11/29 08:13:36;;;;;;;0.70;0.60;;;2.60;99.90;;;;;;5032133;28;20408;-74
2021/11/29 08:16:02;;;;;;;0.70;0.50;;;2.60;99.90;;;;;;5037579;28;20469;-74
2021/11/29 08:18:28;;;;;;;0.70;0.50;;;2.70;99.90;;;;;;5053704;28;20182;-74
2021/11/29 08:20:53;;;;;;;0.70;0.40;;;2.70;99.90;;;;;;5031835;28;20277;-74
2021/11/29 08:23:19;;;;;;;0.70;0.40;;;2.90;99.90;;;;;;5031843;28;20206;-74
2021/11/29 08:25:45;;;;;;;0.70;0.50;;;3.00;99.90;;;;;;5031610;28;20605;-74
2021/11/29 08:28:12;;;;;;;7.47;2.77;;;3.10;99.90;;;;;;5031910;28;20199;-74
2021/11/29 08:30:39;;;;;;;6.07;1.60;;;3.40;99.90;;;;;;5031148;28;20776;-74
2021/11/29 08:33:06;;;;;;;0.70;0.50;;;3.60;99.90;;;;;;5031332;28;20763;-74
2021/11/29 08:35:31;;;;;;;0.70;0.50;;;4.10;99.90;;;;;;5031426;28;20413;-74
2021/11/29 08:37:58;;;;;;;0.70;0.50;;;4.20;99.90;;;;;;5038105;28;20398;-74
2021/11/29 08:40:28;;;;;;;0.70;0.40;;;4.10;99.90;;;;;;5043677;28;20206;-74
2021/11/29 08:42:59;;;;;;;0.87;0.87;;;4.10;99.90;;;;;;5042180;28;20974;-74
2021/11/29 08:45:25;;;;;;;0.93;0.73;;;4.00;99.90;;;;;;5041415;28;20437;-75
2021/11/29 08:47:52;;;;;;;0.70;0.50;;;4.00;99.90;;;;;;5071634;28;20459;-74
2021/11/29 08:50:18;;;;;;;1.47;1.37;;;3.90;99.90;;;;;;5036867;28;20422;-74
2021/11/29 08:52:44;;;;;;;0.70;0.50;;;3.80;99.90;;;;;;5035661;28;20413;-74
2021/11/29 08:55:11;;;;;;;0.70;0.50;;;3.70;99.90;;;;;;5068142;28;20421;-74
2021/11/29 08:57:37;;;;;;;2.73;1.07;;;3.90;99.90;;;;;;5068968;28;20433;-74
2021/11/29 09:00:09;;;;;;;0.70;0.50;;;5.00;99.90;;;;;;5036064;28;20429;-74
2021/11/29 09:02:35;;;;;;;1.60;1.50;;;6.40;99.90;;;;;;5041897;28;20398;-74
2021/11/29 09:05:01;;;;;;;0.70;0.60;;;7.20;99.90;;;;;;5057510;28;21120;-72
2021/11/29 09:07:27;;;;;;;1.63;0.80;;;8.20;99.90;;;;;;5043265;28;20168;-73
2021/11/29 09:09:52;;;;;;;1.87;1.77;;;8.90;99.90;;;;;;5042476;28;20779;-73
2021/11/29 09:12:18;;;;;;;1.43;1.10;;;8.70;99.90;;;;;;5040986;28;20171;-73
2021/11/29 09:14:43;;;;;;;1.43;1.33;;;8.50;99.90;;;;;;5035115;28;20229;-73
2021/11/29 09:17:09;;;;;;;0.70;0.57;;;8.80;99.90;;;;;;5034881;28;20611;-73
2021/11/29 09:19:35;;;;;;;1.00;0.80;;;9.20;99.90;;;;;;5035518;28;20178;-73
2021/11/29 09:22:01;;;;;;;1.73;1.63;;;9.20;99.90;;;;;;5068049;28;20202;-73
2021/11/29 09:24:26;;;;;;;1.43;1.33;;;8.70;99.90;;;;;;5036567;28;20207;-73
2021/11/29 09:26:52;;;;;;;0.70;0.60;;;8.30;99.90;;;;;;5037817;28;20637;-73
2021/11/29 09:29:18;;;;;;;0.70;0.60;;;7.80;99.90;;;;;;5034872;28;20900;-74
2021/11/29 09:31:43;;;;;;;0.80;0.60;;;7.20;99.90;;;;;;5033797;28;20203;-73
2021/11/29 09:34:09;;;;;;;0.70;0.50;;;6.80;99.90;;;;;;5037116;28;20652;-73
2021/11/29 09:36:35;;;;;;;0.70;0.50;;;6.60;99.90;;;;;;5037150;28;20218;-73
2021/11/29 09:39:01;;;;;;;0.70;0.60;;;6.30;99.90;;;;;;5035868;28;20186;-73
2021/11/29 09:41:27;;;;;;;0.70;0.50;;;6.00;99.90;;;;;;5036305;28;20521;-72
2021/11/29 09:43:53;;;;;;;0.70;0.47;;;5.80;99.90;;;;;;5034949;28;20683;-73
2021/11/29 09:46:19;;;;;;;0.70;0.50;;;5.40;99.90;;;;;;5036718;28;20164;-73
2021/11/29 09:48:45;;;;;;;0.77;0.63;;;5.20;99.90;;;;;;5036127;28;20424;-73
2021/11/29 09:51:11;;;;;;;0.70;0.50;;;4.90;99.90;;;;;;5053427;28;20241;-73
2021/11/29 09:53:37;;;;;;;0.70;0.40;;;4.80;99.90;;;;;;5041286;28;20403;-74
2021/11/29 09:56:04;;;;;;;0.80;0.70;;;4.80;99.90;;;;;;5038959;28;20195;-74
2021/11/29 09:58:30;;;;;;;0.70;0.40;;;4.70;99.90;;;;;;5040888;28;20416;-73
2021/11/29 10:01:01;;;;;;;0.70;0.47;;;4.60;99.90;;;;;;5039142;28;20861;-73
2021/11/29 10:03:27;;;;;;;0.83;0.83;;;4.60;99.90;;;;;;5039290;28;20508;-73
2021/11/29 10:05:54;;;;;;;0.70;0.50;;;4.40;99.90;;;;;;5040903;28;20403;-73
2021/11/29 10:08:35;;;;;;;0.70;0.50;;;4.40;99.90;;;;;;5040571;28;20802;-73
2021/11/29 10:11:09;;;;;;;0.73;0.60;;;4.30;99.90;;;;;;5039231;28;20968;-73
2021/11/29 10:14:05;;;;;;;0.70;0.47;;;4.10;99.90;;;;;;5039470;28;20410;-73
2021/11/29 10:16:40;;;;;;;0.70;0.43;;;4.00;99.90;;;;;;5039370;28;20911;-73
2021/11/29 10:19:31;;;;;;;0.70;0.43;;;4.00;99.90;;;;;;5039151;28;20501;-73
2021/11/29 10:22:17;;;;;;;0.70;0.50;;;4.00;99.90;;;;;;5040352;28;20510;-73
2021/11/29 10:24:43;;;;;;;0.70;0.50;;;4.00;99.90;;;;;;5059782;28;20449;-73
2021/11/29 10:27:09;;;;;;;1.07;1.07;;;4.00;99.90;;;;;;5042284;28;20498;-72
2021/11/29 10:29:34;;;;;;;0.70;0.50;;;4.20;99.90;;;;;;5044794;28;20407;-72
2021/11/29 10:32:00;;;;;;;0.70;0.50;;;4.40;99.90;;;;;;5042201;28;20418;-73
2021/11/29 10:34:29;;;;;;;1.53;1.43;;;4.50;99.90;;;;;;5050535;28;20179;-72
2021/11/29 10:37:06;;;;;;;0.70;0.50;;;4.60;99.90;;;;;;5053372;28;20514;-73
2021/11/29 10:39:35;;;;;;;0.70;0.50;;;4.60;99.90;;;;;;5053749;28;20484;-73
2021/11/29 10:42:06;;;;;;;0.80;0.67;;;4.50;99.90;;;;;;5054070;28;20425;-73
2021/11/29 10:44:34;;;;;;;2.20;0.80;;;4.50;99.90;;;;;;5054228;28;20452;-73
2021/11/29 10:47:06;;;;;;;0.70;0.60;;;4.40;99.90;;;;;;5054130;28;20409;-73
2021/11/29 10:49:37;;;;;;;0.70;0.50;;;4.40;99.90;;;;;;5054441;28;20405;-73
2021/11/29 10:52:03;;;;;;;1.53;1.17;;;4.40;99.90;;;;;;5053926;28;20926;-73
2021/11/29 10:54:33;;;;;;;0.80;0.63;;;4.30;99.90;;;;;;5053802;28;20504;-73
2021/11/29 10:57:00;;;;;;;1.93;1.43;;;4.30;99.90;;;;;;5057622;28;20892;-73
2021/11/29 10:59:28;;;;;;;0.70;0.40;;;4.20;99.90;;;;;;5054544;28;20412;-72
2021/11/29 11:01:58;;;;;;;0.70;0.50;;;4.30;99.90;;;;;;5052753;28;20478;-72
2021/11/29 11:04:33;;;;;;;0.70;0.50;;;4.30;99.90;;;;;;5053235;28;20511;-73
2021/11/29 11:07:03;;;;;;;0.70;0.50;;;4.30;99.90;;;;;;5052579;28;20401;-73
2021/11/29 11:09:33;;;;;;;0.70;0.70;;;4.40;99.90;;;;;;5052705;28;20429;-73
2021/11/29 11:12:00;;;;;;;0.70;0.60;;;4.30;99.90;;;;;;5052715;28;20430;-73
2021/11/29 11:14:30;;;;;;;0.70;0.50;;;4.30;99.90;;;;;;5053972;28;20414;-73
2021/11/29 11:17:03;;;;;;;0.70;0.50;;;4.30;99.90;;;;;;5053768;28;20410;-73
2021/11/29 11:19:40;;;;;;;0.70;0.50;;;4.20;99.90;;;;;;5053175;28;20413;-73
2021/11/29 11:22:09;;;;;;;0.70;0.50;;;4.10;99.90;;;;;;5053299;28;20385;-73
2021/11/29 11:24:37;;;;;;;0.70;0.60;;;4.20;99.90;;;;;;5052511;28;20452;-73
2021/11/29 11:27:05;;;;;;;0.90;0.70;;;4.20;99.90;;;;;;5052375;28;20798;-72
2021/11/29 11:29:53;;;;;;;0.70;0.60;;;4.20;99.90;;;;;;5067709;28;20429;-72
2021/11/29 11:32:28;;;;;;;0.70;0.50;;;4.30;99.90;;;;;;5052457;28;20489;-73
2021/11/29 11:34:56;;;;;;;0.70;0.50;;;4.20;99.90;;;;;;5052203;28;20401;-73
2021/11/29 11:37:26;;;;;;;0.70;0.50;;;4.20;99.90;;;;;;5051152;28;20463;-72
2021/11/29 11:39:53;;;;;;;0.70;0.70;;;4.20;99.90;;;;;;5067481;28;20492;-72
2021/11/29 11:42:19;;;;;;;0.90;0.77;;;4.30;99.90;;;;;;5067756;28;20409;-72
2021/11/29 11:44:45;;;;;;;0.90;0.60;;;4.30;99.90;;;;;;5052127;28;20444;-73
2021/11/29 11:47:11;;;;;;;0.70;0.40;;;4.30;99.90;;;;;;5052559;28;20397;-72
2021/11/29 11:49:41;;;;;;;0.70;0.50;;;4.20;99.90;;;;;;5052735;28;21089;-72
2021/11/29 11:52:12;;;;;;;0.70;0.50;;;4.20;99.90;;;;;;5053430;28;20397;-72
2021/11/29 11:54:40;;;;;;;0.80;0.60;;;4.20;99.90;;;;;;5053064;28;20421;-72
2021/11/29 11:57:07;;;;;;;0.70;0.50;;;4.20;99.90;;;;;;5052653;28;20453;-72
2021/11/29 11:59:51;;;;;;;0.70;0.40;;;4.20;99.90;;;;;;5052701;28;20419;-72
2021/11/29 12:02:26;;;;;;;0.80;0.70;;;4.30;99.90;;;;;;5052872;28;20863;-72
2021/11/29 12:05:17;;;;;;;0.90;0.90;;;4.30;99.90;;;;;;5052592;28;20449;-73
2021/11/29 12:07:44;;;;;;;1.00;0.80;;;4.30;99.90;;;;;;5052667;28;20439;-73
2021/11/29 12:10:28;;;;;;;0.70;0.50;;;4.40;99.90;;;;;;5052561;28;20780;-72
2021/11/29 12:12:58;;;;;;;0.70;0.50;;;4.40;99.90;;;;;;5052186;28;20442;-73
2021/11/29 12:15:39;;;;;;;1.50;1.40;;;4.40;99.90;;;;;;5052678;28;20430;-72
2021/11/29 12:18:05;;;;;;;0.97;0.90;;;4.50;99.90;;;;;;5053110;28;20386;-72
2021/11/29 12:20:31;;;;;;;1.27;1.17;;;4.60;99.90;;;;;;5055794;28;20436;-73
2021/11/29 12:22:56;;;;;;;0.70;0.50;;;4.60;99.90;;;;;;5058507;28;20397;-73
2021/11/29 12:25:24;;;;;;;0.70;0.50;;;4.60;99.90;;;;;;5074566;28;20171;-73
2021/11/29 12:28:00;;;;;;;0.73;0.60;;;4.60;99.90;;;;;;5059317;28;20182;-74
2021/11/29 12:30:40;;;;;;;0.70;0.50;;;4.60;99.90;;;;;;5057756;28;20425;-73
2021/11/29 12:33:10;;;;;;;0.70;0.47;;;4.60;99.90;;;;;;5057544;28;20417;-73
2021/11/29 12:35:39;;;;;;;0.70;0.50;;;4.60;99.90;;;;;;5055115;28;20989;-73
2021/11/29 12:38:17;;;;;;;0.70;0.50;;;4.70;99.90;;;;;;5052657;28;20425;-73
2021/11/29 12:41:05;;;;;;;0.70;0.40;;;4.70;99.90;;;;;;5052442;28;20474;-73
2021/11/29 12:43:35;;;;;;;3.43;3.13;;;4.70;99.90;;;;;;5052745;28;21070;-73
2021/11/29 12:46:22;;;;;;;0.70;0.50;;;4.80;99.90;;;;;;5051045;28;20409;-73
2021/11/29 12:48:48;;;;;;;0.70;0.50;;;4.80;99.90;;;;;;5052764;28;20393;-73
2021/11/29 12:51:15;;;;;;;0.70;0.70;;;4.80;99.90;;;;;;5052282;28;20428;-73
2021/11/29 12:53:42;;;;;;;1.80;1.70;;;4.80;99.90;;;;;;5051990;28;20393;-73
2021/11/29 12:56:20;;;;;;;0.70;0.40;;;4.90;99.90;;;;;;5046922;28;20456;-73
2021/11/29 12:59:04;;;;;;;0.70;0.50;;;4.90;99.90;;;;;;5039891;28;20401;-73